Hlavní strana
METAR-TAF:

METAR-TAF

Letiště :

Letiště Atény

Athény, Řecko

zeměpisná šířka: 37-56N, zeměpisná délka: 023-56E, výška: 94 m

Aktuální stav počasí

Zpráva byla vytvořena před 25 minutami, v 07:20 UTC
vítr z různých směrů 1 kt
Teplota 17°C
Vlhkost vzduchu 68%
Tlak 1015 hPa
Viditelnost 10 km a více
Skoro jasno ve výšce 2500 ft
Oblačno až skoro zataženo ve výšce 7000 ft

METAR: LGAV 220720Z VRB01KT 9999 FEW025 BKN070 17/11 Q1015 NOSIG

Čas: 09:45 (07:45 UTC)

Předpověď počasí

Zpráva byla vytvořena před 2 hodinami a 45 minutami, v 05:00 UTC
Předpověď platná od 22 v 06 UTC do 23 v 06 UTC
vítr z různých směrů 3 kt
Viditelnost 10 km a více
Skoro jasno ve výšce 2000 ft
Změna
od 22 v 06 UTC do 22 v 08 UTC
Západoseverozápadní vítr 10 kt

TAF: LGAV 220500Z 2206/2306 VRB03KT 9999 FEW020 BECMG 2206/2208 29010KT

Stav a předpovědi počasí z více než 4 000 letišť (zprávy METAR a TAF).

Červené a žluté tečky na mapě představují dostupné meteorologické stanice.

Když kurzor umístíte na tečku, zobrazí se název stanice.

Pak kliknutím zobrazíte stav a předpověď počasí.

Chcete-li změnit mapu, kliknutím na zelené tlačítko se znaménkem +mapu přiblížíte, kliknutím na zelené tlačítko se znaménkem – mapu oddálíte a kliknutím na zelené šipky přejdete na sousední mapy.


METAR-TAF: